sensor_id;sensor_type;location;lat;lon;timestamp;P1;durP1;ratioP1;P2;durP2;ratioP2
12968;SDS011;6549;53.128;8.182;2023-01-09T00:01:46;3.55;;;2.30;;
12968;SDS011;6549;53.128;8.182;2023-01-09T00:04:48;3.85;;;2.40;;
12968;SDS011;6549;53.128;8.182;2023-01-09T00:07:48;4.70;;;2.58;;
12968;SDS011;6549;53.128;8.182;2023-01-09T00:10:49;4.68;;;2.70;;
12968;SDS011;6549;53.128;8.182;2023-01-09T00:13:49;3.17;;;2.25;;
12968;SDS011;6549;53.128;8.182;2023-01-09T00:16:50;4.70;;;2.50;;
12968;SDS011;6549;53.128;8.182;2023-01-09T00:19:54;4.32;;;2.67;;
12968;SDS011;6549;53.128;8.182;2023-01-09T00:22:54;4.97;;;2.40;;
12968;SDS011;6549;53.128;8.182;2023-01-09T00:26:07;5.07;;;2.70;;
12968;SDS011;6549;53.128;8.182;2023-01-09T00:29:09;4.60;;;2.80;;
12968;SDS011;6549;53.128;8.182;2023-01-09T00:32:10;5.82;;;3.00;;
12968;SDS011;6549;53.128;8.182;2023-01-09T00:35:13;5.30;;;2.80;;
12968;SDS011;6549;53.128;8.182;2023-01-09T00:38:15;4.75;;;2.50;;
12968;SDS011;6549;53.128;8.182;2023-01-09T00:41:18;6.28;;;2.92;;
12968;SDS011;6549;53.128;8.182;2023-01-09T00:44:30;5.30;;;2.78;;
12968;SDS011;6549;53.128;8.182;2023-01-09T00:47:45;4.68;;;2.47;;
12968;SDS011;6549;53.128;8.182;2023-01-09T00:50:49;5.53;;;2.53;;
12968;SDS011;6549;53.128;8.182;2023-01-09T00:53:51;3.95;;;2.45;;
12968;SDS011;6549;53.128;8.182;2023-01-09T00:56:51;5.85;;;2.55;;
12968;SDS011;6549;53.128;8.182;2023-01-09T00:59:51;10.75;;;2.88;;
12968;SDS011;6549;53.128;8.182;2023-01-09T01:02:52;4.88;;;2.65;;
12968;SDS011;6549;53.128;8.182;2023-01-09T01:05:52;3.83;;;2.50;;
12968;SDS011;6549;53.128;8.182;2023-01-09T01:09:11;4.82;;;2.50;;
12968;SDS011;6549;53.128;8.182;2023-01-09T01:12:12;3.53;;;2.55;;
12968;SDS011;6549;53.128;8.182;2023-01-09T01:15:12;6.30;;;2.58;;
12968;SDS011;6549;53.128;8.182;2023-01-09T01:18:13;4.95;;;2.75;;
12968;SDS011;6549;53.128;8.182;2023-01-09T01:21:14;3.63;;;2.60;;
12968;SDS011;6549;53.128;8.182;2023-01-09T01:24:14;4.68;;;2.45;;
12968;SDS011;6549;53.128;8.182;2023-01-09T01:27:18;3.30;;;2.38;;
12968;SDS011;6549;53.128;8.182;2023-01-09T01:30:19;5.55;;;3.03;;
12968;SDS011;6549;53.128;8.182;2023-01-09T01:33:19;3.83;;;2.15;;
12968;SDS011;6549;53.128;8.182;2023-01-09T01:36:19;5.45;;;2.72;;
12968;SDS011;6549;53.128;8.182;2023-01-09T01:39:19;4.90;;;2.80;;
12968;SDS011;6549;53.128;8.182;2023-01-09T01:42:20;4.53;;;2.42;;
12968;SDS011;6549;53.128;8.182;2023-01-09T01:45:24;4.93;;;2.45;;
12968;SDS011;6549;53.128;8.182;2023-01-09T01:48:28;5.10;;;2.50;;
12968;SDS011;6549;53.128;8.182;2023-01-09T01:51:29;5.05;;;2.72;;
12968;SDS011;6549;53.128;8.182;2023-01-09T01:54:32;4.18;;;2.60;;
12968;SDS011;6549;53.128;8.182;2023-01-09T01:57:33;4.38;;;2.67;;
12968;SDS011;6549;53.128;8.182;2023-01-09T02:00:35;5.97;;;2.92;;
12968;SDS011;6549;53.128;8.182;2023-01-09T02:03:38;5.35;;;2.65;;
12968;SDS011;6549;53.128;8.182;2023-01-09T02:06:40;4.28;;;2.75;;
12968;SDS011;6549;53.128;8.182;2023-01-09T02:09:41;5.05;;;2.80;;
12968;SDS011;6549;53.128;8.182;2023-01-09T02:12:43;4.47;;;3.00;;
12968;SDS011;6549;53.128;8.182;2023-01-09T02:25:52;5.72;;;2.72;;
12968;SDS011;6549;53.128;8.182;2023-01-09T02:36:03;7.93;;;3.10;;
12968;SDS011;6549;53.128;8.182;2023-01-09T02:42:42;6.70;;;3.22;;
12968;SDS011;6549;53.128;8.182;2023-01-09T02:48:46;4.93;;;3.10;;
12968;SDS011;6549;53.128;8.182;2023-01-09T02:51:55;6.13;;;3.30;;
12968;SDS011;6549;53.128;8.182;2023-01-09T02:55:10;5.22;;;3.70;;
12968;SDS011;6549;53.128;8.182;2023-01-09T02:58:30;6.65;;;3.90;;
12968;SDS011;6549;53.128;8.182;2023-01-09T03:08:19;3.15;;;2.40;;
12968;SDS011;6549;53.128;8.182;2023-01-09T03:11:24;3.72;;;2.17;;
12968;SDS011;6549;53.128;8.182;2023-01-09T03:14:29;3.70;;;2.30;;
12968;SDS011;6549;53.128;8.182;2023-01-09T03:17:33;3.35;;;2.10;;
12968;SDS011;6549;53.128;8.182;2023-01-09T03:20:37;3.70;;;2.00;;
12968;SDS011;6549;53.128;8.182;2023-01-09T03:23:55;2.20;;;1.80;;
12968;SDS011;6549;53.128;8.182;2023-01-09T03:26:59;4.93;;;2.08;;
12968;SDS011;6549;53.128;8.182;2023-01-09T03:30:00;4.30;;;1.83;;
12968;SDS011;6549;53.128;8.182;2023-01-09T03:33:01;1.80;;;1.50;;
12968;SDS011;6549;53.128;8.182;2023-01-09T03:36:01;3.42;;;1.48;;
12968;SDS011;6549;53.128;8.182;2023-01-09T03:39:02;2.50;;;1.50;;
12968;SDS011;6549;53.128;8.182;2023-01-09T03:42:03;2.50;;;1.30;;
12968;SDS011;6549;53.128;8.182;2023-01-09T03:45:03;1.20;;;1.10;;
12968;SDS011;6549;53.128;8.182;2023-01-09T03:48:05;1.23;;;1.10;;
12968;SDS011;6549;53.128;8.182;2023-01-09T03:51:06;1.10;;;1.00;;
12968;SDS011;6549;53.128;8.182;2023-01-09T03:54:06;1.40;;;1.30;;
12968;SDS011;6549;53.128;8.182;2023-01-09T03:57:06;1.30;;;1.20;;
12968;SDS011;6549;53.128;8.182;2023-01-09T04:00:07;2.03;;;1.25;;
12968;SDS011;6549;53.128;8.182;2023-01-09T04:03:08;1.35;;;1.20;;
12968;SDS011;6549;53.128;8.182;2023-01-09T04:06:08;1.38;;;1.08;;
12968;SDS011;6549;53.128;8.182;2023-01-09T04:09:09;1.95;;;1.20;;
12968;SDS011;6549;53.128;8.182;2023-01-09T04:12:09;1.45;;;1.20;;
12968;SDS011;6549;53.128;8.182;2023-01-09T04:15:10;2.38;;;1.70;;
12968;SDS011;6549;53.128;8.182;2023-01-09T04:18:10;2.03;;;1.80;;
12968;SDS011;6549;53.128;8.182;2023-01-09T04:21:11;2.95;;;1.63;;
12968;SDS011;6549;53.128;8.182;2023-01-09T04:24:11;2.40;;;1.40;;
12968;SDS011;6549;53.128;8.182;2023-01-09T04:27:12;2.72;;;1.50;;
12968;SDS011;6549;53.128;8.182;2023-01-09T04:30:12;1.95;;;1.45;;
12968;SDS011;6549;53.128;8.182;2023-01-09T04:33:12;1.55;;;1.45;;
12968;SDS011;6549;53.128;8.182;2023-01-09T04:36:13;1.98;;;1.50;;
12968;SDS011;6549;53.128;8.182;2023-01-09T04:39:13;4.32;;;1.77;;
12968;SDS011;6549;53.128;8.182;2023-01-09T04:42:13;1.73;;;1.50;;
12968;SDS011;6549;53.128;8.182;2023-01-09T04:45:14;4.75;;;2.03;;
12968;SDS011;6549;53.128;8.182;2023-01-09T04:48:16;2.63;;;1.97;;
12968;SDS011;6549;53.128;8.182;2023-01-09T04:51:16;2.35;;;1.98;;
12968;SDS011;6549;53.128;8.182;2023-01-09T04:54:16;2.85;;;1.88;;
12968;SDS011;6549;53.128;8.182;2023-01-09T04:57:17;2.10;;;1.70;;
12968;SDS011;6549;53.128;8.182;2023-01-09T05:00:17;2.28;;;1.63;;
12968;SDS011;6549;53.128;8.182;2023-01-09T05:03:18;2.90;;;1.88;;
12968;SDS011;6549;53.128;8.182;2023-01-09T05:06:18;2.60;;;1.80;;
12968;SDS011;6549;53.128;8.182;2023-01-09T05:09:18;3.13;;;1.98;;
12968;SDS011;6549;53.128;8.182;2023-01-09T05:12:19;3.28;;;1.77;;
12968;SDS011;6549;53.128;8.182;2023-01-09T05:15:19;2.88;;;1.90;;
12968;SDS011;6549;53.128;8.182;2023-01-09T05:18:20;1.80;;;1.50;;
12968;SDS011;6549;53.128;8.182;2023-01-09T05:21:21;3.53;;;1.92;;
12968;SDS011;6549;53.128;8.182;2023-01-09T05:24:22;4.50;;;1.70;;
12968;SDS011;6549;53.128;8.182;2023-01-09T05:27:22;2.38;;;1.50;;
12968;SDS011;6549;53.128;8.182;2023-01-09T05:30:23;3.20;;;1.67;;
12968;SDS011;6549;53.128;8.182;2023-01-09T05:33:23;2.13;;;1.67;;
12968;SDS011;6549;53.128;8.182;2023-01-09T05:36:23;2.08;;;1.70;;
12968;SDS011;6549;53.128;8.182;2023-01-09T05:39:24;4.72;;;2.20;;
12968;SDS011;6549;53.128;8.182;2023-01-09T05:42:24;4.78;;;2.15;;
12968;SDS011;6549;53.128;8.182;2023-01-09T05:45:24;4.97;;;2.20;;
12968;SDS011;6549;53.128;8.182;2023-01-09T05:48:26;2.95;;;2.10;;
12968;SDS011;6549;53.128;8.182;2023-01-09T05:51:26;3.25;;;2.22;;
12968;SDS011;6549;53.128;8.182;2023-01-09T05:54:26;4.72;;;2.78;;
12968;SDS011;6549;53.128;8.182;2023-01-09T05:57:27;5.47;;;2.80;;
12968;SDS011;6549;53.128;8.182;2023-01-09T06:00:27;5.43;;;2.50;;
12968;SDS011;6549;53.128;8.182;2023-01-09T06:03:28;4.55;;;2.67;;
12968;SDS011;6549;53.128;8.182;2023-01-09T06:06:29;5.40;;;3.17;;
12968;SDS011;6549;53.128;8.182;2023-01-09T06:09:29;6.32;;;3.35;;
12968;SDS011;6549;53.128;8.182;2023-01-09T06:12:30;6.07;;;3.33;;
12968;SDS011;6549;53.128;8.182;2023-01-09T06:15:30;7.22;;;3.58;;
12968;SDS011;6549;53.128;8.182;2023-01-09T06:18:30;6.68;;;3.40;;
12968;SDS011;6549;53.128;8.182;2023-01-09T06:21:31;6.25;;;3.50;;
12968;SDS011;6549;53.128;8.182;2023-01-09T06:24:32;6.30;;;3.42;;
12968;SDS011;6549;53.128;8.182;2023-01-09T06:27:32;6.07;;;3.53;;
12968;SDS011;6549;53.128;8.182;2023-01-09T06:30:32;8.85;;;3.97;;
12968;SDS011;6549;53.128;8.182;2023-01-09T06:33:33;6.10;;;3.83;;
12968;SDS011;6549;53.128;8.182;2023-01-09T06:36:33;8.20;;;4.55;;
12968;SDS011;6549;53.128;8.182;2023-01-09T06:39:34;8.18;;;4.18;;
12968;SDS011;6549;53.128;8.182;2023-01-09T06:42:34;8.95;;;4.43;;
12968;SDS011;6549;53.128;8.182;2023-01-09T06:45:34;6.10;;;3.80;;
12968;SDS011;6549;53.128;8.182;2023-01-09T06:48:35;9.38;;;4.90;;
12968;SDS011;6549;53.128;8.182;2023-01-09T06:51:35;9.57;;;5.32;;
12968;SDS011;6549;53.128;8.182;2023-01-09T06:54:35;10.65;;;5.60;;
12968;SDS011;6549;53.128;8.182;2023-01-09T06:57:36;11.40;;;5.68;;
12968;SDS011;6549;53.128;8.182;2023-01-09T07:00:36;10.68;;;6.13;;
12968;SDS011;6549;53.128;8.182;2023-01-09T07:03:36;10.80;;;5.60;;
12968;SDS011;6549;53.128;8.182;2023-01-09T07:06:37;12.57;;;6.65;;
12968;SDS011;6549;53.128;8.182;2023-01-09T07:09:37;10.80;;;6.70;;
12968;SDS011;6549;53.128;8.182;2023-01-09T07:12:37;13.50;;;7.18;;
12968;SDS011;6549;53.128;8.182;2023-01-09T07:15:38;10.70;;;7.05;;
12968;SDS011;6549;53.128;8.182;2023-01-09T07:18:38;14.68;;;7.57;;
12968;SDS011;6549;53.128;8.182;2023-01-09T07:21:38;13.95;;;8.10;;
12968;SDS011;6549;53.128;8.182;2023-01-09T07:24:39;12.55;;;7.00;;
12968;SDS011;6549;53.128;8.182;2023-01-09T07:27:39;15.88;;;8.45;;
12968;SDS011;6549;53.128;8.182;2023-01-09T07:30:39;16.70;;;8.95;;
12968;SDS011;6549;53.128;8.182;2023-01-09T07:33:39;15.60;;;8.43;;
12968;SDS011;6549;53.128;8.182;2023-01-09T07:36:40;16.75;;;8.65;;
12968;SDS011;6549;53.128;8.182;2023-01-09T07:39:40;13.65;;;8.85;;
12968;SDS011;6549;53.128;8.182;2023-01-09T07:42:40;15.88;;;9.30;;
12968;SDS011;6549;53.128;8.182;2023-01-09T07:45:41;15.90;;;8.73;;
12968;SDS011;6549;53.128;8.182;2023-01-09T07:48:41;18.58;;;8.82;;
12968;SDS011;6549;53.128;8.182;2023-01-09T07:51:41;14.43;;;9.00;;
12968;SDS011;6549;53.128;8.182;2023-01-09T07:54:43;13.13;;;8.43;;
12968;SDS011;6549;53.128;8.182;2023-01-09T07:57:46;14.82;;;8.45;;
12968;SDS011;6549;53.128;8.182;2023-01-09T08:00:49;17.25;;;8.70;;
12968;SDS011;6549;53.128;8.182;2023-01-09T08:03:49;12.50;;;7.30;;
12968;SDS011;6549;53.128;8.182;2023-01-09T08:06:49;14.68;;;8.02;;
12968;SDS011;6549;53.128;8.182;2023-01-09T08:09:50;13.45;;;7.32;;
12968;SDS011;6549;53.128;8.182;2023-01-09T08:12:50;11.80;;;7.28;;
12968;SDS011;6549;53.128;8.182;2023-01-09T08:15:50;12.07;;;7.53;;
12968;SDS011;6549;53.128;8.182;2023-01-09T08:18:51;12.73;;;6.88;;
12968;SDS011;6549;53.128;8.182;2023-01-09T08:21:51;11.35;;;6.75;;
12968;SDS011;6549;53.128;8.182;2023-01-09T08:24:51;11.00;;;6.45;;
12968;SDS011;6549;53.128;8.182;2023-01-09T08:27:52;11.68;;;6.60;;
12968;SDS011;6549;53.128;8.182;2023-01-09T08:30:52;13.43;;;6.68;;
12968;SDS011;6549;53.128;8.182;2023-01-09T08:33:52;10.68;;;6.25;;
12968;SDS011;6549;53.128;8.182;2023-01-09T08:36:53;13.55;;;6.47;;
12968;SDS011;6549;53.128;8.182;2023-01-09T08:39:53;14.43;;;5.70;;
12968;SDS011;6549;53.128;8.182;2023-01-09T08:42:53;13.40;;;6.57;;
12968;SDS011;6549;53.128;8.182;2023-01-09T08:46:16;13.77;;;5.75;;
12968;SDS011;6549;53.128;8.182;2023-01-09T08:49:38;10.73;;;5.53;;
12968;SDS011;6549;53.128;8.182;2023-01-09T08:52:38;11.73;;;5.20;;
12968;SDS011;6549;53.128;8.182;2023-01-09T08:55:38;8.05;;;4.93;;
12968;SDS011;6549;53.128;8.182;2023-01-09T08:58:39;10.32;;;5.22;;
12968;SDS011;6549;53.128;8.182;2023-01-09T09:01:40;11.35;;;5.53;;
12968;SDS011;6549;53.128;8.182;2023-01-09T09:04:40;9.60;;;5.82;;
12968;SDS011;6549;53.128;8.182;2023-01-09T09:07:40;11.15;;;6.15;;
12968;SDS011;6549;53.128;8.182;2023-01-09T09:10:41;13.13;;;6.32;;
12968;SDS011;6549;53.128;8.182;2023-01-09T09:13:42;10.43;;;5.75;;
12968;SDS011;6549;53.128;8.182;2023-01-09T09:16:42;8.30;;;5.50;;
12968;SDS011;6549;53.128;8.182;2023-01-09T09:19:42;13.75;;;6.15;;
12968;SDS011;6549;53.128;8.182;2023-01-09T09:22:44;11.52;;;5.88;;
12968;SDS011;6549;53.128;8.182;2023-01-09T09:25:45;11.63;;;5.80;;
12968;SDS011;6549;53.128;8.182;2023-01-09T09:28:45;11.43;;;6.05;;
12968;SDS011;6549;53.128;8.182;2023-01-09T09:31:46;12.48;;;5.82;;
12968;SDS011;6549;53.128;8.182;2023-01-09T09:34:46;11.93;;;5.93;;
12968;SDS011;6549;53.128;8.182;2023-01-09T09:37:51;13.68;;;6.07;;
12968;SDS011;6549;53.128;8.182;2023-01-09T09:48:23;8.88;;;5.43;;
12968;SDS011;6549;53.128;8.182;2023-01-09T09:51:46;14.02;;;6.25;;
12968;SDS011;6549;53.128;8.182;2023-01-09T09:54:55;11.43;;;5.60;;
12968;SDS011;6549;53.128;8.182;2023-01-09T10:01:55;11.15;;;5.47;;
12968;SDS011;6549;53.128;8.182;2023-01-09T10:04:59;11.30;;;5.68;;
12968;SDS011;6549;53.128;8.182;2023-01-09T10:08:17;10.77;;;5.50;;
12968;SDS011;6549;53.128;8.182;2023-01-09T10:11:25;12.88;;;6.30;;
12968;SDS011;6549;53.128;8.182;2023-01-09T10:14:31;7.95;;;5.05;;
12968;SDS011;6549;53.128;8.182;2023-01-09T10:27:08;13.13;;;6.50;;
12968;SDS011;6549;53.128;8.182;2023-01-09T10:39:53;14.32;;;7.70;;
12968;SDS011;6549;53.128;8.182;2023-01-09T10:43:03;13.63;;;7.22;;
12968;SDS011;6549;53.128;8.182;2023-01-09T10:46:09;16.55;;;7.60;;
12968;SDS011;6549;53.128;8.182;2023-01-09T10:49:15;15.02;;;8.77;;
12968;SDS011;6549;53.128;8.182;2023-01-09T10:52:17;13.52;;;8.07;;
12968;SDS011;6549;53.128;8.182;2023-01-09T10:58:38;10.10;;;7.05;;
12968;SDS011;6549;53.128;8.182;2023-01-09T11:01:39;13.25;;;8.48;;
12968;SDS011;6549;53.128;8.182;2023-01-09T11:04:40;12.18;;;8.20;;
12968;SDS011;6549;53.128;8.182;2023-01-09T11:07:43;16.17;;;8.73;;
12968;SDS011;6549;53.128;8.182;2023-01-09T11:14:02;13.32;;;8.50;;
12968;SDS011;6549;53.128;8.182;2023-01-09T11:17:04;12.93;;;9.10;;
12968;SDS011;6549;53.128;8.182;2023-01-09T11:20:06;13.23;;;9.27;;
12968;SDS011;6549;53.128;8.182;2023-01-09T11:23:48;11.93;;;8.48;;
12968;SDS011;6549;53.128;8.182;2023-01-09T11:26:41;11.68;;;7.30;;
12968;SDS011;6549;53.128;8.182;2023-01-09T11:29:42;13.05;;;8.35;;
12968;SDS011;6549;53.128;8.182;2023-01-09T11:32:43;10.95;;;7.60;;
12968;SDS011;6549;53.128;8.182;2023-01-09T11:35:53;13.98;;;7.88;;
12968;SDS011;6549;53.128;8.182;2023-01-09T11:42:27;12.13;;;6.85;;
12968;SDS011;6549;53.128;8.182;2023-01-09T11:45:51;10.00;;;6.35;;
12968;SDS011;6549;53.128;8.182;2023-01-09T11:48:56;11.93;;;6.28;;
12968;SDS011;6549;53.128;8.182;2023-01-09T11:52:16;10.30;;;6.75;;
12968;SDS011;6549;53.128;8.182;2023-01-09T11:55:21;10.15;;;6.57;;
12968;SDS011;6549;53.128;8.182;2023-01-09T11:58:21;8.13;;;5.60;;
12968;SDS011;6549;53.128;8.182;2023-01-09T12:01:29;11.25;;;6.10;;
12968;SDS011;6549;53.128;8.182;2023-01-09T12:11:20;7.32;;;4.55;;
12968;SDS011;6549;53.128;8.182;2023-01-09T12:37:59;8.88;;;4.20;;
12968;SDS011;6549;53.128;8.182;2023-01-09T12:44:23;6.82;;;4.28;;
12968;SDS011;6549;53.128;8.182;2023-01-09T12:53:58;8.20;;;4.60;;
12968;SDS011;6549;53.128;8.182;2023-01-09T12:57:06;7.78;;;4.05;;
12968;SDS011;6549;53.128;8.182;2023-01-09T13:00:19;8.50;;;4.53;;
12968;SDS011;6549;53.128;8.182;2023-01-09T13:03:31;8.60;;;4.75;;
12968;SDS011;6549;53.128;8.182;2023-01-09T13:06:39;6.18;;;4.55;;
12968;SDS011;6549;53.128;8.182;2023-01-09T13:09:49;7.07;;;4.60;;
12968;SDS011;6549;53.128;8.182;2023-01-09T13:12:58;8.52;;;4.45;;
12968;SDS011;6549;53.128;8.182;2023-01-09T13:16:10;8.40;;;4.78;;
12968;SDS011;6549;53.128;8.182;2023-01-09T13:19:20;6.55;;;4.72;;
12968;SDS011;6549;53.128;8.182;2023-01-09T13:22:27;8.00;;;4.82;;
12968;SDS011;6549;53.128;8.182;2023-01-09T13:28:56;8.60;;;4.88;;
12968;SDS011;6549;53.128;8.182;2023-01-09T13:35:33;6.38;;;4.20;;
12968;SDS011;6549;53.128;8.182;2023-01-09T13:38:34;7.20;;;4.13;;
12968;SDS011;6549;53.128;8.182;2023-01-09T13:41:45;8.68;;;4.68;;
12968;SDS011;6549;53.128;8.182;2023-01-09T13:48:26;8.25;;;4.43;;
12968;SDS011;6549;53.128;8.182;2023-01-09T14:01:52;8.32;;;5.28;;
12968;SDS011;6549;53.128;8.182;2023-01-09T14:04:40;8.50;;;5.57;;
12968;SDS011;6549;53.128;8.182;2023-01-09T14:07:42;8.63;;;4.90;;
12968;SDS011;6549;53.128;8.182;2023-01-09T14:10:48;10.15;;;5.50;;
12968;SDS011;6549;53.128;8.182;2023-01-09T14:13:53;8.10;;;5.10;;
12968;SDS011;6549;53.128;8.182;2023-01-09T14:16:59;7.50;;;5.30;;
12968;SDS011;6549;53.128;8.182;2023-01-09T14:23:15;8.00;;;4.93;;
12968;SDS011;6549;53.128;8.182;2023-01-09T14:32:35;8.38;;;5.43;;
12968;SDS011;6549;53.128;8.182;2023-01-09T14:39:10;6.97;;;4.80;;
12968;SDS011;6549;53.128;8.182;2023-01-09T14:45:24;8.82;;;5.20;;
12968;SDS011;6549;53.128;8.182;2023-01-09T14:48:26;8.43;;;4.90;;
12968;SDS011;6549;53.128;8.182;2023-01-09T14:51:27;6.75;;;5.00;;
12968;SDS011;6549;53.128;8.182;2023-01-09T14:54:36;8.18;;;5.43;;
12968;SDS011;6549;53.128;8.182;2023-01-09T14:57:42;8.90;;;5.68;;
12968;SDS011;6549;53.128;8.182;2023-01-09T15:04:09;11.13;;;6.00;;
12968;SDS011;6549;53.128;8.182;2023-01-09T15:07:22;7.13;;;5.30;;
12968;SDS011;6549;53.128;8.182;2023-01-09T15:10:34;9.45;;;5.70;;
12968;SDS011;6549;53.128;8.182;2023-01-09T15:13:40;7.78;;;5.80;;
12968;SDS011;6549;53.128;8.182;2023-01-09T15:16:42;7.18;;;5.45;;
12968;SDS011;6549;53.128;8.182;2023-01-09T15:19:44;9.95;;;6.82;;
12968;SDS011;6549;53.128;8.182;2023-01-09T15:22:48;9.38;;;6.10;;
12968;SDS011;6549;53.128;8.182;2023-01-09T15:25:49;7.47;;;5.75;;
12968;SDS011;6549;53.128;8.182;2023-01-09T15:28:50;9.65;;;5.85;;
12968;SDS011;6549;53.128;8.182;2023-01-09T15:31:52;8.17;;;5.83;;
12968;SDS011;6549;53.128;8.182;2023-01-09T15:34:56;8.70;;;5.70;;
12968;SDS011;6549;53.128;8.182;2023-01-09T15:37:57;10.68;;;6.90;;
12968;SDS011;6549;53.128;8.182;2023-01-09T15:40:59;10.75;;;6.25;;
12968;SDS011;6549;53.128;8.182;2023-01-09T15:44:03;8.93;;;6.03;;
12968;SDS011;6549;53.128;8.182;2023-01-09T15:47:16;12.48;;;6.57;;
12968;SDS011;6549;53.128;8.182;2023-01-09T15:50:25;9.80;;;5.82;;
12968;SDS011;6549;53.128;8.182;2023-01-09T15:53:27;10.75;;;5.65;;
12968;SDS011;6549;53.128;8.182;2023-01-09T15:56:28;10.05;;;6.55;;
12968;SDS011;6549;53.128;8.182;2023-01-09T15:59:32;8.65;;;5.43;;
12968;SDS011;6549;53.128;8.182;2023-01-09T16:02:32;9.80;;;6.25;;
12968;SDS011;6549;53.128;8.182;2023-01-09T16:05:59;9.70;;;6.93;;
12968;SDS011;6549;53.128;8.182;2023-01-09T16:09:11;10.25;;;6.40;;
12968;SDS011;6549;53.128;8.182;2023-01-09T16:12:24;9.98;;;6.47;;
12968;SDS011;6549;53.128;8.182;2023-01-09T16:15:27;8.73;;;5.87;;
12968;SDS011;6549;53.128;8.182;2023-01-09T16:18:55;10.27;;;6.95;;
12968;SDS011;6549;53.128;8.182;2023-01-09T16:21:55;10.90;;;6.55;;
12968;SDS011;6549;53.128;8.182;2023-01-09T16:24:57;10.67;;;6.83;;
12968;SDS011;6549;53.128;8.182;2023-01-09T16:34:27;13.35;;;7.75;;
12968;SDS011;6549;53.128;8.182;2023-01-09T16:37:28;14.23;;;7.43;;
12968;SDS011;6549;53.128;8.182;2023-01-09T16:40:28;13.00;;;7.60;;
12968;SDS011;6549;53.128;8.182;2023-01-09T16:43:30;11.73;;;7.78;;
12968;SDS011;6549;53.128;8.182;2023-01-09T16:46:32;11.13;;;8.15;;
12968;SDS011;6549;53.128;8.182;2023-01-09T16:49:33;14.18;;;9.13;;
12968;SDS011;6549;53.128;8.182;2023-01-09T16:52:34;12.93;;;7.82;;
12968;SDS011;6549;53.128;8.182;2023-01-09T16:55:34;13.85;;;8.77;;
12968;SDS011;6549;53.128;8.182;2023-01-09T16:58:36;11.82;;;7.95;;
12968;SDS011;6549;53.128;8.182;2023-01-09T17:01:37;16.60;;;9.30;;
12968;SDS011;6549;53.128;8.182;2023-01-09T17:04:37;16.60;;;8.48;;
12968;SDS011;6549;53.128;8.182;2023-01-09T17:07:37;14.23;;;8.27;;
12968;SDS011;6549;53.128;8.182;2023-01-09T17:10:38;16.02;;;9.68;;
12968;SDS011;6549;53.128;8.182;2023-01-09T17:13:56;12.90;;;8.52;;
12968;SDS011;6549;53.128;8.182;2023-01-09T17:16:57;13.73;;;9.02;;
12968;SDS011;6549;53.128;8.182;2023-01-09T17:19:57;14.38;;;8.95;;
12968;SDS011;6549;53.128;8.182;2023-01-09T17:22:58;16.42;;;9.85;;
12968;SDS011;6549;53.128;8.182;2023-01-09T17:25:58;14.48;;;9.10;;
12968;SDS011;6549;53.128;8.182;2023-01-09T17:29:17;14.80;;;9.13;;
12968;SDS011;6549;53.128;8.182;2023-01-09T17:32:18;15.15;;;9.85;;
12968;SDS011;6549;53.128;8.182;2023-01-09T17:35:18;14.75;;;8.88;;
12968;SDS011;6549;53.128;8.182;2023-01-09T17:38:18;12.73;;;8.55;;
12968;SDS011;6549;53.128;8.182;2023-01-09T17:41:19;16.92;;;10.25;;
12968;SDS011;6549;53.128;8.182;2023-01-09T17:44:21;20.65;;;9.93;;
12968;SDS011;6549;53.128;8.182;2023-01-09T17:47:22;16.27;;;9.27;;
12968;SDS011;6549;53.128;8.182;2023-01-09T17:50:22;17.35;;;10.88;;
12968;SDS011;6549;53.128;8.182;2023-01-09T17:53:27;16.77;;;10.13;;
12968;SDS011;6549;53.128;8.182;2023-01-09T17:56:29;16.20;;;10.63;;
12968;SDS011;6549;53.128;8.182;2023-01-09T17:59:33;20.42;;;11.85;;
12968;SDS011;6549;53.128;8.182;2023-01-09T18:02:34;17.95;;;11.00;;
12968;SDS011;6549;53.128;8.182;2023-01-09T18:05:34;21.10;;;12.15;;
12968;SDS011;6549;53.128;8.182;2023-01-09T18:08:36;20.30;;;11.80;;
12968;SDS011;6549;53.128;8.182;2023-01-09T18:11:38;24.48;;;12.57;;
12968;SDS011;6549;53.128;8.182;2023-01-09T18:14:39;21.40;;;11.88;;
12968;SDS011;6549;53.128;8.182;2023-01-09T18:17:41;19.73;;;11.27;;
12968;SDS011;6549;53.128;8.182;2023-01-09T18:20:41;18.70;;;11.82;;
12968;SDS011;6549;53.128;8.182;2023-01-09T18:26:45;25.25;;;13.10;;
12968;SDS011;6549;53.128;8.182;2023-01-09T18:33:00;19.55;;;10.15;;
12968;SDS011;6549;53.128;8.182;2023-01-09T18:36:05;17.90;;;9.85;;
12968;SDS011;6549;53.128;8.182;2023-01-09T18:39:08;17.77;;;9.70;;
12968;SDS011;6549;53.128;8.182;2023-01-09T18:42:09;18.67;;;9.57;;
12968;SDS011;6549;53.128;8.182;2023-01-09T18:45:09;20.48;;;10.88;;
12968;SDS011;6549;53.128;8.182;2023-01-09T18:48:10;19.15;;;10.57;;
12968;SDS011;6549;53.128;8.182;2023-01-09T18:51:10;20.10;;;10.60;;
12968;SDS011;6549;53.128;8.182;2023-01-09T18:54:11;17.75;;;10.18;;
12968;SDS011;6549;53.128;8.182;2023-01-09T18:57:12;17.77;;;8.98;;
12968;SDS011;6549;53.128;8.182;2023-01-09T19:00:12;15.02;;;8.27;;
12968;SDS011;6549;53.128;8.182;2023-01-09T19:03:13;17.05;;;8.82;;
12968;SDS011;6549;53.128;8.182;2023-01-09T19:06:14;14.40;;;8.10;;
12968;SDS011;6549;53.128;8.182;2023-01-09T19:09:14;13.20;;;7.72;;
12968;SDS011;6549;53.128;8.182;2023-01-09T19:12:15;10.55;;;6.47;;
12968;SDS011;6549;53.128;8.182;2023-01-09T19:15:15;14.35;;;6.43;;
12968;SDS011;6549;53.128;8.182;2023-01-09T19:18:15;8.98;;;5.10;;
12968;SDS011;6549;53.128;8.182;2023-01-09T19:21:17;10.68;;;4.80;;
12968;SDS011;6549;53.128;8.182;2023-01-09T19:24:19;10.43;;;4.38;;
12968;SDS011;6549;53.128;8.182;2023-01-09T19:27:19;10.35;;;4.65;;
12968;SDS011;6549;53.128;8.182;2023-01-09T19:30:20;8.30;;;4.60;;
12968;SDS011;6549;53.128;8.182;2023-01-09T19:33:21;9.32;;;4.40;;
12968;SDS011;6549;53.128;8.182;2023-01-09T19:36:23;10.45;;;5.22;;
12968;SDS011;6549;53.128;8.182;2023-01-09T19:39:24;9.55;;;5.32;;
12968;SDS011;6549;53.128;8.182;2023-01-09T19:42:26;14.00;;;5.53;;
12968;SDS011;6549;53.128;8.182;2023-01-09T19:45:26;14.75;;;5.43;;
12968;SDS011;6549;53.128;8.182;2023-01-09T19:48:26;12.07;;;5.20;;
12968;SDS011;6549;53.128;8.182;2023-01-09T19:51:30;14.40;;;5.22;;
12968;SDS011;6549;53.128;8.182;2023-01-09T19:54:31;12.73;;;5.13;;
12968;SDS011;6549;53.128;8.182;2023-01-09T19:57:31;10.85;;;4.85;;
12968;SDS011;6549;53.128;8.182;2023-01-09T20:00:32;12.73;;;5.28;;
12968;SDS011;6549;53.128;8.182;2023-01-09T20:03:32;12.38;;;4.88;;
12968;SDS011;6549;53.128;8.182;2023-01-09T20:06:33;11.82;;;5.43;;
12968;SDS011;6549;53.128;8.182;2023-01-09T20:09:33;12.68;;;4.72;;
12968;SDS011;6549;53.128;8.182;2023-01-09T20:12:34;13.45;;;5.35;;
12968;SDS011;6549;53.128;8.182;2023-01-09T20:15:36;13.90;;;5.22;;
12968;SDS011;6549;53.128;8.182;2023-01-09T20:18:36;10.73;;;4.73;;
12968;SDS011;6549;53.128;8.182;2023-01-09T20:21:36;11.55;;;4.68;;
12968;SDS011;6549;53.128;8.182;2023-01-09T20:24:37;12.75;;;4.93;;
12968;SDS011;6549;53.128;8.182;2023-01-09T20:27:38;15.27;;;6.18;;
12968;SDS011;6549;53.128;8.182;2023-01-09T20:30:42;12.82;;;4.97;;
12968;SDS011;6549;53.128;8.182;2023-01-09T20:33:46;12.27;;;4.78;;
12968;SDS011;6549;53.128;8.182;2023-01-09T20:36:48;12.73;;;4.80;;
12968;SDS011;6549;53.128;8.182;2023-01-09T20:39:48;11.93;;;4.75;;
12968;SDS011;6549;53.128;8.182;2023-01-09T20:42:51;11.38;;;4.95;;
12968;SDS011;6549;53.128;8.182;2023-01-09T20:45:52;15.20;;;4.97;;
12968;SDS011;6549;53.128;8.182;2023-01-09T20:48:56;14.57;;;5.00;;
12968;SDS011;6549;53.128;8.182;2023-01-09T20:51:58;12.75;;;5.20;;
12968;SDS011;6549;53.128;8.182;2023-01-09T20:54:58;15.30;;;4.93;;
12968;SDS011;6549;53.128;8.182;2023-01-09T20:57:58;10.80;;;4.95;;
12968;SDS011;6549;53.128;8.182;2023-01-09T21:01:04;10.60;;;4.90;;
12968;SDS011;6549;53.128;8.182;2023-01-09T21:04:08;14.70;;;5.30;;
12968;SDS011;6549;53.128;8.182;2023-01-09T21:07:08;16.98;;;5.60;;
12968;SDS011;6549;53.128;8.182;2023-01-09T21:10:09;9.43;;;4.78;;
12968;SDS011;6549;53.128;8.182;2023-01-09T21:13:10;12.60;;;4.53;;